Villa Elisa, Argentina
Current Conditions -  °F | °C
As of 2:00 AM on Thursday 27 Nov 2014 (Local Time) from SUSO Reporting Station
Clear Clear  
Wind Chill: 63°   Ceiling: Unl
Heat Index: 63°   Visibility: 6mi
Dew Point: 57°   Wind: 6mph
Humidity: 82%   Direction: 180°S
Pressure: 29.94"   Gusts: NA
Location:  32.17°S, 58.4°W
Report Text: SUSO 270500Z 18005KT CAVOK 17/14 Q1014
Loading
Personal Weather Stations






























Interactive Weather Map New forecast layout! Learn more

10-Day Weather Forecast

Advertisements
Track Severe Weather on mobile